Time;durP1;ratioP1;P1;durP2;ratioP2;P2;SDS_P1;SDS_P2;PMS_P1;PMS_P2;Temp;Humidity;BMP_temperature;BMP_pressure;BME280_temperature;BME280_humidity;BME280_pressure;Samples;Min_cycle;Max_cycle;Signal;HPM_P1;HPM_P2
2021/06/08 00:00:10;;;;;;;20.53;18.00;;;17.50;99.90;;;;;;5005623;28;20440;-72
2021/06/08 00:02:35;;;;;;;19.13;17.33;;;17.50;99.90;;;;;;5001618;28;20243;-72
2021/06/08 00:05:01;;;;;;;20.73;17.67;;;17.50;99.90;;;;;;5005628;28;20459;-72
2021/06/08 00:07:26;;;;;;;21.27;19.17;;;17.50;99.90;;;;;;5007685;28;20826;-72
2021/06/08 00:09:52;;;;;;;19.23;17.63;;;17.50;99.90;;;;;;5006514;28;20275;-72
2021/06/08 00:12:17;;;;;;;19.03;17.43;;;17.50;99.90;;;;;;5006835;28;20684;-72
2021/06/08 00:14:43;;;;;;;19.70;17.77;;;17.50;99.90;;;;;;5006719;28;20542;-72
2021/06/08 00:17:08;;;;;;;20.13;18.33;;;17.50;99.90;;;;;;4997371;28;20689;-72
2021/06/08 00:19:34;;;;;;;19.67;17.87;;;17.50;99.90;;;;;;5006187;28;20191;-72
2021/06/08 00:22:00;;;;;;;19.87;18.17;;;17.50;99.90;;;;;;5006948;28;20208;-72
2021/06/08 00:24:25;;;;;;;21.43;19.30;;;17.50;99.90;;;;;;5006609;28;20530;-72
2021/06/08 00:26:51;;;;;;;19.83;17.73;;;17.50;99.90;;;;;;5002222;28;20664;-72
2021/06/08 00:29:17;;;;;;;20.50;18.40;;;17.50;99.90;;;;;;5000062;28;21050;-72
2021/06/08 00:31:42;;;;;;;19.30;17.60;;;17.40;99.90;;;;;;4994341;28;20264;-72
2021/06/08 00:34:08;;;;;;;20.70;18.97;;;17.40;99.90;;;;;;5003131;28;20216;-72
2021/06/08 00:36:33;;;;;;;19.97;18.17;;;17.40;99.90;;;;;;5003696;28;20297;-72
2021/06/08 00:38:59;;;;;;;19.53;17.63;;;17.40;99.90;;;;;;5007418;28;20262;-72
2021/06/08 00:41:32;;;;;;;19.77;18.03;;;17.40;99.90;;;;;;5008336;28;20213;-72
2021/06/08 00:44:01;;;;;;;20.00;18.20;;;17.40;99.90;;;;;;5007444;28;20177;-72
2021/06/08 00:46:28;;;;;;;20.03;18.13;;;17.40;99.90;;;;;;5005487;28;20475;-72
2021/06/08 00:48:53;;;;;;;19.47;17.47;;;17.40;99.90;;;;;;5006116;28;20494;-72
2021/06/08 00:51:19;;;;;;;21.40;19.60;;;17.40;99.90;;;;;;4999484;28;20833;-72
2021/06/08 00:53:44;;;;;;;21.47;19.57;;;17.40;99.90;;;;;;5007178;28;20213;-72
2021/06/08 00:56:10;;;;;;;18.77;17.13;;;17.40;99.90;;;;;;5004553;28;20228;-72
2021/06/08 00:58:35;;;;;;;19.43;17.63;;;17.40;99.90;;;;;;5006154;28;20288;-72
2021/06/08 01:01:01;;;;;;;19.57;18.00;;;17.30;99.90;;;;;;5009077;28;20220;-72
2021/06/08 01:03:27;;;;;;;19.93;18.13;;;17.30;99.90;;;;;;5004770;28;20249;-72
2021/06/08 01:05:55;;;;;;;20.07;18.27;;;17.30;99.90;;;;;;5006226;28;20169;-72
2021/06/08 01:08:20;;;;;;;21.23;19.23;;;17.30;99.90;;;;;;5005634;28;21008;-72
2021/06/08 01:10:46;;;;;;;19.87;18.20;;;17.30;99.90;;;;;;5008806;28;20440;-72
2021/06/08 01:13:11;;;;;;;18.73;17.13;;;17.30;99.90;;;;;;5006616;28;20201;-72
2021/06/08 01:15:37;;;;;;;19.80;17.93;;;17.30;99.90;;;;;;4997196;28;20186;-72
2021/06/08 01:18:03;;;;;;;20.97;18.80;;;17.30;99.90;;;;;;5005951;28;20224;-72
2021/06/08 01:20:30;;;;;;;19.13;17.43;;;17.30;99.90;;;;;;5005540;28;20169;-72
2021/06/08 01:22:55;;;;;;;21.97;19.70;;;17.30;99.90;;;;;;5005101;28;20464;-72
2021/06/08 01:25:21;;;;;;;21.10;19.30;;;17.30;99.90;;;;;;5004906;28;20484;-72
2021/06/08 01:27:47;;;;;;;20.73;18.93;;;17.30;99.90;;;;;;5004166;28;20613;-72
2021/06/08 01:30:13;;;;;;;20.77;18.90;;;17.30;99.90;;;;;;5007493;28;20807;-72
2021/06/08 01:32:41;;;;;;;21.07;19.07;;;17.30;99.90;;;;;;5007406;28;20573;-72
2021/06/08 01:35:09;;;;;;;21.57;19.50;;;17.30;99.90;;;;;;4993958;28;20433;-72
2021/06/08 01:37:37;;;;;;;22.10;20.10;;;17.30;99.90;;;;;;5010959;28;20787;-72
2021/06/08 01:40:06;;;;;;;19.93;18.30;;;17.30;99.90;;;;;;5010221;28;20447;-72
2021/06/08 01:42:32;;;;;;;20.07;18.27;;;17.20;99.90;;;;;;5009137;28;20429;-72
2021/06/08 01:44:57;;;;;;;22.23;20.13;;;17.20;99.90;;;;;;5009027;28;20727;-72
2021/06/08 01:47:23;;;;;;;22.33;20.40;;;17.20;99.90;;;;;;5009322;28;20177;-72
2021/06/08 01:49:48;;;;;;;22.53;20.43;;;17.30;99.90;;;;;;5010561;28;20182;-72
2021/06/08 01:52:40;;;;;;;22.83;20.70;;;17.20;99.90;;;;;;5007932;28;20210;-72
2021/06/08 01:55:14;;;;;;;23.50;21.40;;;17.20;99.90;;;;;;5002386;28;20178;-72
2021/06/08 01:57:48;;;;;;;23.67;21.47;;;17.20;99.90;;;;;;5009252;28;20434;-72
2021/06/08 02:00:26;;;;;;;23.93;21.67;;;17.20;99.90;;;;;;5008684;28;20451;-72
2021/06/08 02:03:04;;;;;;;22.93;20.67;;;17.20;99.90;;;;;;5009275;28;20440;-72
2021/06/08 02:05:46;;;;;;;23.07;21.07;;;17.20;99.90;;;;;;5007793;28;20438;-72
2021/06/08 02:08:21;;;;;;;23.10;20.63;;;17.20;99.90;;;;;;5002736;28;20428;-72
2021/06/08 02:10:53;;;;;;;25.20;22.93;;;17.10;99.90;;;;;;5006530;28;20936;-72
2021/06/08 02:13:29;;;;;;;23.87;21.10;;;17.10;99.90;;;;;;5010921;28;20456;-72
2021/06/08 02:16:09;;;;;;;25.40;22.80;;;17.10;99.90;;;;;;5009203;28;20446;-72
2021/06/08 02:18:35;;;;;;;26.73;24.20;;;17.10;99.90;;;;;;5010134;28;20515;-72
2021/06/08 02:21:02;;;;;;;32.40;29.30;;;17.10;99.90;;;;;;5005480;28;20437;-72
2021/06/08 02:23:30;;;;;;;33.03;30.07;;;17.10;99.90;;;;;;5010199;28;20446;-72
2021/06/08 02:25:57;;;;;;;31.73;28.73;;;17.10;99.90;;;;;;5008130;28;20851;-72
2021/06/08 02:28:31;;;;;;;34.27;31.13;;;17.10;99.90;;;;;;5007633;28;20432;-72
2021/06/08 02:31:02;;;;;;;32.47;29.43;;;17.00;99.90;;;;;;5007303;28;20793;-72
2021/06/08 02:33:28;;;;;;;34.17;30.60;;;17.00;99.90;;;;;;5002930;28;20810;-72
2021/06/08 02:35:54;;;;;;;36.77;33.27;;;17.00;99.90;;;;;;5008037;28;20436;-72
2021/06/08 02:38:21;;;;;;;35.37;30.93;;;17.00;99.90;;;;;;5008750;28;20523;-72
2021/06/08 02:40:48;;;;;;;33.67;30.30;;;17.00;99.90;;;;;;5007036;28;20456;-72
2021/06/08 02:43:17;;;;;;;31.97;28.83;;;17.00;99.90;;;;;;5009679;28;20440;-72
2021/06/08 02:45:45;;;;;;;33.87;30.37;;;16.90;99.90;;;;;;5008318;28;20436;-72
2021/06/08 02:48:11;;;;;;;31.10;27.77;;;16.90;99.90;;;;;;4999717;28;20429;-72
2021/06/08 02:50:38;;;;;;;31.57;28.57;;;16.90;99.90;;;;;;5006770;28;20523;-72
2021/06/08 02:53:04;;;;;;;31.37;28.43;;;16.90;99.90;;;;;;5000961;28;20962;-72
2021/06/08 02:55:30;;;;;;;31.73;28.50;;;16.90;99.90;;;;;;4998412;28;20436;-72
2021/06/08 02:57:58;;;;;;;30.30;27.50;;;16.90;99.90;;;;;;5005861;28;20490;-72
2021/06/08 03:00:25;;;;;;;30.70;27.80;;;16.90;99.90;;;;;;5007795;28;20552;-70
2021/06/08 03:02:54;;;;;;;29.83;26.93;;;16.80;99.90;;;;;;5010657;28;20483;-70
2021/06/08 03:05:27;;;;;;;30.60;27.40;;;16.80;99.90;;;;;;5007590;28;20444;-70
2021/06/08 03:08:03;;;;;;;31.60;28.53;;;16.90;99.90;;;;;;4997303;28;20447;-71
2021/06/08 03:10:34;;;;;;;30.23;27.30;;;16.80;99.90;;;;;;5006136;28;20485;-70
2021/06/08 03:13:01;;;;;;;33.13;26.37;;;16.80;99.90;;;;;;5003765;28;20460;-70
2021/06/08 03:15:35;;;;;;;32.57;29.37;;;16.80;99.90;;;;;;5007909;28;20527;-70
2021/06/08 03:18:02;;;;;;;31.80;28.80;;;16.80;99.90;;;;;;5009505;28;20956;-70
2021/06/08 03:20:37;;;;;;;29.73;26.90;;;16.80;99.90;;;;;;5002981;28;20956;-70
2021/06/08 03:23:06;;;;;;;29.47;26.57;;;16.90;99.90;;;;;;5003390;28;20427;-70
2021/06/08 03:25:34;;;;;;;30.30;27.50;;;16.80;99.90;;;;;;5007034;28;20428;-70
2021/06/08 03:28:00;;;;;;;29.50;26.63;;;16.90;99.90;;;;;;5002479;28;20472;-70
2021/06/08 03:30:27;;;;;;;29.90;27.10;;;16.90;99.90;;;;;;5009292;28;20443;-70
2021/06/08 03:32:53;;;;;;;29.87;27.17;;;16.90;99.90;;;;;;5007782;28;20463;-70
2021/06/08 03:35:22;;;;;;;29.77;26.87;;;16.90;99.90;;;;;;5003687;28;20925;-71
2021/06/08 03:37:48;;;;;;;29.43;26.70;;;16.90;99.90;;;;;;5007972;28;20444;-70
2021/06/08 03:40:15;;;;;;;31.17;28.27;;;16.90;99.90;;;;;;4996328;28;20830;-70
2021/06/08 03:42:41;;;;;;;30.10;27.30;;;16.90;99.90;;;;;;4995345;28;20951;-70
2021/06/08 03:45:13;;;;;;;31.30;28.33;;;16.90;99.90;;;;;;5006774;28;20436;-70
2021/06/08 03:47:55;;;;;;;32.50;29.30;;;16.90;99.90;;;;;;4983597;28;20457;-70
2021/06/08 03:50:21;;;;;;;29.23;26.50;;;16.90;99.90;;;;;;5003953;28;20441;-70
2021/06/08 03:52:50;;;;;;;32.63;29.43;;;16.90;99.90;;;;;;5007392;28;20474;-70
2021/06/08 03:55:25;;;;;;;30.70;27.63;;;17.00;99.90;;;;;;4999655;28;20436;-70
2021/06/08 03:57:54;;;;;;;30.17;27.17;;;17.00;99.90;;;;;;5007938;28;20420;-70
2021/06/08 04:00:23;;;;;;;33.97;30.33;;;17.00;99.90;;;;;;5006599;28;20531;-70
2021/06/08 04:02:50;;;;;;;33.00;29.90;;;17.00;99.90;;;;;;5007784;28;20917;-70
2021/06/08 04:05:16;;;;;;;31.43;28.20;;;17.00;99.90;;;;;;5006034;28;20440;-70
2021/06/08 04:07:46;;;;;;;34.50;31.00;;;17.00;99.90;;;;;;5008549;28;20519;-70
2021/06/08 04:10:21;;;;;;;33.70;30.53;;;17.00;99.90;;;;;;5005001;28;20604;-70
2021/06/08 04:12:48;;;;;;;35.00;31.70;;;17.10;99.90;;;;;;4994217;28;20978;-70
2021/06/08 04:15:14;;;;;;;39.63;33.73;;;17.10;99.90;;;;;;5008740;28;20436;-70
2021/06/08 04:17:40;;;;;;;36.37;32.67;;;17.10;99.90;;;;;;5006734;28;20443;-71
2021/06/08 04:20:09;;;;;;;32.53;29.33;;;17.10;99.90;;;;;;5003898;28;20436;-70
2021/06/08 04:22:36;;;;;;;33.13;29.90;;;17.10;99.90;;;;;;4996986;28;20978;-70
2021/06/08 04:25:04;;;;;;;33.97;30.87;;;17.10;99.90;;;;;;5007401;28;20432;-70
2021/06/08 04:27:30;;;;;;;32.83;29.53;;;17.10;99.90;;;;;;4999316;28;21017;-70
2021/06/08 04:29:57;;;;;;;33.07;29.73;;;17.10;99.90;;;;;;5007521;28;20527;-70
2021/06/08 04:32:23;;;;;;;35.07;31.77;;;17.20;99.90;;;;;;4998642;28;20225;-70
2021/06/08 04:34:51;;;;;;;32.97;29.80;;;17.20;99.90;;;;;;4999072;28;20837;-70
2021/06/08 04:37:18;;;;;;;34.93;31.43;;;17.20;99.90;;;;;;5005457;28;20440;-70
2021/06/08 04:39:44;;;;;;;33.73;30.57;;;17.20;99.90;;;;;;4999426;28;20462;-70
2021/06/08 04:42:11;;;;;;;36.03;32.33;;;17.30;99.90;;;;;;5005747;28;20506;-70
2021/06/08 04:44:41;;;;;;;35.47;32.07;;;17.30;99.90;;;;;;4991085;28;20197;-70
2021/06/08 04:47:07;;;;;;;37.00;33.20;;;17.30;99.90;;;;;;5000277;28;20436;-70
2021/06/08 04:49:32;;;;;;;37.20;33.63;;;17.30;99.90;;;;;;5001859;28;20424;-71
2021/06/08 04:51:58;;;;;;;35.63;32.07;;;17.30;99.90;;;;;;5003345;28;20178;-70
2021/06/08 04:54:25;;;;;;;36.40;32.70;;;17.30;99.90;;;;;;5002462;28;20182;-70
2021/06/08 04:56:52;;;;;;;34.20;30.60;;;17.30;99.90;;;;;;5005848;28;20177;-70
2021/06/08 04:59:26;;;;;;;36.53;33.03;;;17.40;99.90;;;;;;5006239;28;20985;-70
2021/06/08 05:01:53;;;;;;;37.03;33.40;;;17.40;99.90;;;;;;5000428;28;20434;-71
2021/06/08 05:04:22;;;;;;;35.20;31.80;;;17.40;99.90;;;;;;4999995;28;20527;-70
2021/06/08 05:06:54;;;;;;;34.50;31.47;;;17.50;99.90;;;;;;5004099;28;20510;-70
2021/06/08 05:09:22;;;;;;;36.33;32.60;;;17.50;99.90;;;;;;5005115;28;20464;-70
2021/06/08 05:11:55;;;;;;;34.70;31.40;;;17.50;99.90;;;;;;5008983;28;20432;-70
2021/06/08 05:14:22;;;;;;;36.07;32.47;;;17.50;99.90;;;;;;4998473;28;20424;-70
2021/06/08 05:16:49;;;;;;;33.33;30.30;;;17.50;99.90;;;;;;5002766;28;20439;-70
2021/06/08 05:19:16;;;;;;;37.30;33.60;;;17.50;99.90;;;;;;5006020;28;20445;-70
2021/06/08 05:21:44;;;;;;;36.30;32.57;;;17.50;99.90;;;;;;5005409;28;20946;-70
2021/06/08 05:24:11;;;;;;;38.70;35.00;;;17.50;99.90;;;;;;5010400;28;20431;-70
2021/06/08 05:26:40;;;;;;;37.40;33.83;;;17.50;99.90;;;;;;5005494;28;20433;-70
2021/06/08 05:29:07;;;;;;;36.30;32.47;;;17.50;99.90;;;;;;5009591;28;20467;-70
2021/06/08 05:31:32;;;;;;;38.50;34.83;;;17.50;99.90;;;;;;5003444;28;20463;-70
2021/06/08 05:33:59;;;;;;;39.60;35.93;;;17.50;99.90;;;;;;5006341;28;20484;-70
2021/06/08 05:36:36;;;;;;;38.30;34.60;;;17.50;99.90;;;;;;5000609;28;20565;-70
2021/06/08 05:39:04;;;;;;;41.13;36.73;;;17.50;99.90;;;;;;5010941;28;20420;-70
2021/06/08 05:41:29;;;;;;;38.30;34.70;;;17.50;99.90;;;;;;5010824;28;20560;-70
2021/06/08 05:43:55;;;;;;;37.67;34.07;;;17.50;99.90;;;;;;5011265;28;20515;-70
2021/06/08 05:46:21;;;;;;;38.90;35.03;;;17.50;99.90;;;;;;5008807;28;20177;-70
2021/06/08 05:48:47;;;;;;;38.53;34.50;;;17.50;99.90;;;;;;5011167;28;20182;-70
2021/06/08 05:51:13;;;;;;;38.93;34.80;;;17.50;99.90;;;;;;5007083;28;20435;-70
2021/06/08 05:53:40;;;;;;;38.63;34.93;;;17.50;99.90;;;;;;5008748;28;20489;-70
2021/06/08 05:56:07;;;;;;;37.73;33.90;;;17.50;99.90;;;;;;5005146;28;20181;-70
2021/06/08 05:58:34;;;;;;;35.40;32.03;;;17.60;99.90;;;;;;5012979;28;20454;-70
2021/06/08 06:01:02;;;;;;;38.63;34.70;;;17.60;99.90;;;;;;5009469;28;20624;-70
2021/06/08 06:03:28;;;;;;;38.30;34.37;;;17.70;99.90;;;;;;5006227;28;20522;-70
2021/06/08 06:05:55;;;;;;;36.40;32.97;;;17.70;99.90;;;;;;5004826;28;21183;-70
2021/06/08 06:08:22;;;;;;;35.90;32.40;;;17.70;99.90;;;;;;5004107;28;20436;-71
2021/06/08 06:10:47;;;;;;;35.80;32.30;;;17.80;99.90;;;;;;5006505;28;20446;-70
2021/06/08 06:13:18;;;;;;;34.97;31.77;;;17.90;99.90;;;;;;5007756;28;20545;-70
2021/06/08 06:15:45;;;;;;;36.90;33.03;;;17.90;99.90;;;;;;5010256;28;20175;-70
2021/06/08 06:18:13;;;;;;;35.20;32.00;;;18.00;99.90;;;;;;5000140;28;21006;-70
2021/06/08 06:20:40;;;;;;;36.47;33.00;;;18.00;99.90;;;;;;5002059;28;20523;-70
2021/06/08 06:23:06;;;;;;;35.00;31.70;;;18.00;99.90;;;;;;5004155;28;20882;-70
2021/06/08 06:25:32;;;;;;;35.23;31.60;;;18.10;99.90;;;;;;5006143;28;20466;-70
2021/06/08 06:27:57;;;;;;;34.83;31.27;;;18.10;99.90;;;;;;5003391;28;20439;-70
2021/06/08 06:30:24;;;;;;;34.17;30.87;;;18.10;99.90;;;;;;4999958;28;20186;-70
2021/06/08 06:32:50;;;;;;;34.60;31.20;;;18.10;99.90;;;;;;5004110;28;20198;-71
2021/06/08 06:35:17;;;;;;;32.60;29.53;;;18.20;99.90;;;;;;5004733;28;20433;-71
2021/06/08 06:37:43;;;;;;;33.23;30.10;;;18.20;99.90;;;;;;5011493;28;20769;-70
2021/06/08 06:40:12;;;;;;;32.63;29.40;;;18.30;99.90;;;;;;5005865;28;20463;-70
2021/06/08 06:42:51;;;;;;;30.50;27.53;;;18.40;99.90;;;;;;5000761;28;20848;-70
2021/06/08 06:45:20;;;;;;;31.63;28.67;;;18.50;99.90;;;;;;5001355;28;20475;-70
2021/06/08 06:47:46;;;;;;;31.10;28.30;;;18.70;99.90;;;;;;5004550;28;20435;-70
2021/06/08 06:50:12;;;;;;;29.73;26.63;;;18.90;99.90;;;;;;5003067;28;20428;-70
2021/06/08 06:52:39;;;;;;;27.77;25.17;;;19.20;99.90;;;;;;5003758;28;20456;-70
2021/06/08 06:55:08;;;;;;;28.33;25.53;;;19.40;99.90;;;;;;5004805;28;20486;-70
2021/06/08 06:57:34;;;;;;;27.90;23.03;;;19.60;99.90;;;;;;5006285;28;20455;-70
2021/06/08 07:00:01;;;;;;;25.90;23.60;;;19.80;99.90;;;;;;5002712;28;20539;-70
2021/06/08 07:02:28;;;;;;;23.70;21.50;;;20.10;99.90;;;;;;5004429;28;20826;-70
2021/06/08 07:04:54;;;;;;;25.47;22.77;;;20.40;99.90;;;;;;5000730;28;20808;-70
2021/06/08 07:07:21;;;;;;;23.67;21.30;;;20.60;99.90;;;;;;5005823;28;20431;-70
2021/06/08 07:09:48;;;;;;;23.97;21.63;;;20.80;99.90;;;;;;5006253;28;20462;-70
2021/06/08 07:12:20;;;;;;;20.50;18.37;;;21.00;99.90;;;;;;4999129;28;20824;-70
2021/06/08 07:14:48;;;;;;;21.80;19.87;;;21.20;99.90;;;;;;5004242;28;20957;-70
2021/06/08 07:17:13;;;;;;;20.30;17.40;;;21.40;99.90;;;;;;5003843;28;20492;-71
2021/06/08 07:19:41;;;;;;;19.10;17.37;;;21.60;99.90;;;;;;5013297;28;20955;-70
2021/06/08 07:22:08;;;;;;;19.73;17.73;;;21.80;99.90;;;;;;4997637;28;20185;-70
2021/06/08 07:24:34;;;;;;;17.03;15.30;;;21.90;99.90;;;;;;5004327;28;20598;-70
2021/06/08 07:27:00;;;;;;;17.03;15.40;;;22.00;99.90;;;;;;5000185;28;20476;-70
2021/06/08 07:29:26;;;;;;;15.90;14.40;;;22.10;99.90;;;;;;5003936;28;20463;-70
2021/06/08 07:31:57;;;;;;;17.13;15.53;;;22.10;99.90;;;;;;5002382;28;20429;-70
2021/06/08 07:34:26;;;;;;;18.93;17.23;;;22.10;99.90;;;;;;5001836;28;20818;-70
2021/06/08 07:36:55;;;;;;;20.33;18.23;;;22.10;99.90;;;;;;5004315;28;20444;-70
2021/06/08 07:39:35;;;;;;;18.53;16.83;;;22.00;99.90;;;;;;5003745;28;20804;-71
2021/06/08 07:42:10;;;;;;;15.73;14.30;;;21.80;99.90;;;;;;5005238;28;20451;-70
2021/06/08 07:44:47;;;;;;;16.40;14.90;;;21.70;99.90;;;;;;5003567;28;20976;-70
2021/06/08 07:47:15;;;;;;;16.30;14.80;;;21.50;99.90;;;;;;5002420;28;20838;-70
2021/06/08 07:49:44;;;;;;;18.27;16.57;;;21.30;99.90;;;;;;5004026;28;20440;-70
2021/06/08 07:52:10;;;;;;;15.13;13.73;;;21.20;99.90;;;;;;5003216;28;20463;-70
2021/06/08 07:54:37;;;;;;;17.80;16.17;;;21.10;99.90;;;;;;5001231;28;21036;-70
2021/06/08 07:57:03;;;;;;;16.37;14.87;;;20.90;99.90;;;;;;4999076;28;22872;-70
2021/06/08 07:59:29;;;;;;;17.47;15.77;;;20.70;99.90;;;;;;5002885;28;20458;-70
2021/06/08 08:01:54;;;;;;;19.30;17.27;;;20.60;99.90;;;;;;5001370;28;20425;-70
2021/06/08 08:04:22;;;;;;;17.30;15.80;;;20.50;99.90;;;;;;5004655;28;20603;-70
2021/06/08 08:06:50;;;;;;;18.03;16.33;;;20.40;99.90;;;;;;5007805;28;20176;-70
2021/06/08 08:09:18;;;;;;;18.77;13.67;;;20.50;99.90;;;;;;5016523;28;20767;-70
2021/06/08 08:11:46;;;;;;;14.60;12.27;;;20.40;99.90;;;;;;5000739;28;20436;-70
2021/06/08 08:14:14;;;;;;;14.80;13.30;;;20.50;99.90;;;;;;5001823;28;20552;-70
2021/06/08 08:16:45;;;;;;;14.03;12.70;;;20.50;99.90;;;;;;5011276;28;20440;-70
2021/06/08 08:19:11;;;;;;;13.97;12.47;;;20.60;99.90;;;;;;4998556;28;20535;-70
2021/06/08 08:21:36;;;;;;;15.63;14.00;;;20.60;99.90;;;;;;4999081;28;20849;-70
2021/06/08 08:24:03;;;;;;;14.80;13.37;;;20.80;99.90;;;;;;4996778;28;20173;-70
2021/06/08 08:26:28;;;;;;;17.20;15.60;;;20.80;99.90;;;;;;4995881;28;20539;-70
2021/06/08 08:28:58;;;;;;;16.80;15.03;;;21.00;99.90;;;;;;5000582;28;20797;-70
2021/06/08 08:31:27;;;;;;;14.73;13.17;;;21.20;99.90;;;;;;5004640;28;20265;-70
2021/06/08 08:33:54;;;;;;;14.70;13.30;;;21.40;99.90;;;;;;5000065;28;20456;-70
2021/06/08 08:36:19;;;;;;;15.33;13.87;;;21.70;99.90;;;;;;5004377;28;20813;-70
2021/06/08 08:38:48;;;;;;;16.27;14.33;;;21.90;99.90;;;;;;5001905;28;20429;-70
2021/06/08 08:41:14;;;;;;;36.00;17.03;;;22.10;99.90;;;;;;5008262;28;20225;-71
2021/06/08 08:43:51;;;;;;;14.20;12.87;;;22.30;99.90;;;;;;5000596;28;20447;-70
2021/06/08 08:46:18;;;;;;;12.30;11.20;;;22.70;99.90;;;;;;5021040;28;20726;-70
2021/06/08 08:48:45;;;;;;;12.63;11.43;;;23.00;99.90;;;;;;5003804;28;20461;-70
2021/06/08 08:51:13;;;;;;;13.20;11.90;;;23.20;99.90;;;;;;5005970;28;20976;-71
2021/06/08 08:53:39;;;;;;;12.67;11.47;;;23.50;99.90;;;;;;5014984;28;20970;-70
2021/06/08 08:56:05;;;;;;;15.67;11.60;;;23.60;99.90;;;;;;5009941;28;20995;-71
2021/06/08 08:58:30;;;;;;;13.13;11.93;;;23.60;99.90;;;;;;5008743;28;20451;-71
2021/06/08 09:00:57;;;;;;;12.43;11.23;;;23.60;99.90;;;;;;5010249;28;20654;-70
2021/06/08 09:03:23;;;;;;;11.43;10.53;;;23.50;99.90;;;;;;5008841;28;20310;-70
2021/06/08 09:05:49;;;;;;;12.00;10.70;;;23.50;99.90;;;;;;5020853;28;20448;-71
2021/06/08 09:08:14;;;;;;;13.70;12.33;;;23.70;99.90;;;;;;5009685;28;20218;-70
2021/06/08 09:10:42;;;;;;;13.70;12.40;;;24.00;99.90;;;;;;5010001;28;21300;-70
2021/06/08 09:13:08;;;;;;;10.70;9.70;;;24.80;99.90;;;;;;5016894;28;20204;-71
2021/06/08 09:15:36;;;;;;;10.10;9.30;;;25.10;97.40;;;;;;5007629;28;20470;-71
2021/06/08 09:18:04;;;;;;;8.90;8.03;;;25.10;95.90;;;;;;5010105;28;20260;-71
2021/06/08 09:20:31;;;;;;;9.40;8.50;;;24.70;95.20;;;;;;5014352;28;20488;-71
2021/06/08 09:23:02;;;;;;;10.20;7.70;;;24.40;95.70;;;;;;5008429;28;20519;-71
2021/06/08 09:25:37;;;;;;;9.10;8.20;;;24.10;95.80;;;;;;5008670;28;20446;-71
2021/06/08 09:28:24;;;;;;;10.23;8.33;;;23.90;95.60;;;;;;5005645;28;20474;-71
2021/06/08 09:31:05;;;;;;;8.90;8.20;;;23.60;96.20;;;;;;5009854;28;20842;-70
2021/06/08 09:33:32;;;;;;;9.40;8.60;;;23.30;95.50;;;;;;5009277;28;20496;-71
2021/06/08 09:36:06;;;;;;;8.40;7.60;;;23.20;96.10;;;;;;5008733;28;20424;-71
2021/06/08 09:38:40;;;;;;;9.30;8.50;;;23.10;96.90;;;;;;5002091;28;20431;-70
2021/06/08 09:41:27;;;;;;;11.40;10.30;;;23.10;97.90;;;;;;5002517;28;20995;-71
2021/06/08 09:44:10;;;;;;;11.80;10.53;;;23.10;98.30;;;;;;5004568;28;20443;-70
2021/06/08 09:46:49;;;;;;;13.17;11.97;;;23.20;99.10;;;;;;5006502;28;20917;-71
2021/06/08 09:49:31;;;;;;;11.10;10.10;;;23.20;99.00;;;;;;5005605;28;20447;-71
2021/06/08 09:52:01;;;;;;;12.30;11.20;;;23.20;99.10;;;;;;5012116;28;20439;-71
2021/06/08 09:54:31;;;;;;;13.10;12.00;;;23.20;99.30;;;;;;5006411;28;20444;-71
2021/06/08 09:57:19;;;;;;;11.73;10.67;;;23.50;99.90;;;;;;5005598;28;20515;-71
2021/06/08 09:59:55;;;;;;;10.97;10.07;;;23.80;98.80;;;;;;5000307;28;20843;-71
2021/06/08 10:02:24;;;;;;;11.47;10.37;;;24.10;98.20;;;;;;5004956;28;20482;-71
2021/06/08 10:04:51;;;;;;;12.97;11.70;;;24.30;97.90;;;;;;5001970;28;20437;-71
2021/06/08 10:07:30;;;;;;;12.00;10.90;;;24.50;97.30;;;;;;5005626;28;20514;-71
2021/06/08 10:10:08;;;;;;;12.50;11.40;;;24.60;97.20;;;;;;5001976;28;20574;-71
2021/06/08 10:12:53;;;;;;;13.47;11.60;;;24.80;97.20;;;;;;5006814;28;20552;-71
2021/06/08 10:15:19;;;;;;;13.40;11.93;;;24.80;96.30;;;;;;5008807;28;20854;-71
2021/06/08 10:17:45;;;;;;;12.33;11.23;;;24.70;95.50;;;;;;5007444;28;20421;-71
2021/06/08 10:20:22;;;;;;;10.17;9.07;;;24.70;95.70;;;;;;5004143;28;20447;-71
2021/06/08 10:22:48;;;;;;;11.53;10.47;;;24.80;95.10;;;;;;5003491;28;20177;-71
2021/06/08 10:25:14;;;;;;;9.33;8.40;;;24.80;94.70;;;;;;5001964;28;21744;-71
2021/06/08 10:27:40;;;;;;;14.83;12.70;;;24.70;93.90;;;;;;5006089;28;20431;-71
2021/06/08 10:30:08;;;;;;;12.77;11.57;;;24.70;94.00;;;;;;4998763;28;20181;-71
2021/06/08 10:32:38;;;;;;;11.23;10.13;;;24.80;94.10;;;;;;5003218;28;20488;-71
2021/06/08 10:35:08;;;;;;;11.87;9.47;;;24.70;93.70;;;;;;5004497;28;20918;-71
2021/06/08 10:37:36;;;;;;;10.20;9.27;;;24.70;92.20;;;;;;5004662;28;20432;-71
2021/06/08 10:40:04;;;;;;;13.00;11.80;;;24.60;91.20;;;;;;5004849;28;20478;-71
2021/06/08 10:42:30;;;;;;;15.23;13.63;;;24.60;92.40;;;;;;5002130;28;20446;-71
2021/06/08 10:45:08;;;;;;;15.97;14.67;;;24.60;91.70;;;;;;4997288;28;20954;-71
2021/06/08 10:47:54;;;;;;;12.40;11.30;;;24.80;91.80;;;;;;5001230;28;20554;-71
2021/06/08 10:50:28;;;;;;;15.23;13.87;;;24.80;92.00;;;;;;5001926;28;20514;-71
2021/06/08 10:52:58;;;;;;;14.27;12.97;;;25.00;93.00;;;;;;5008025;28;20470;-71
2021/06/08 10:55:41;;;;;;;13.27;11.40;;;24.90;92.40;;;;;;5000675;28;20428;-71
2021/06/08 10:58:08;;;;;;;10.63;9.60;;;24.80;91.20;;;;;;5005456;28;20474;-71
2021/06/08 11:00:44;;;;;;;9.23;8.37;;;24.60;91.60;;;;;;5008140;28;20440;-71
2021/06/08 11:03:11;;;;;;;10.10;9.30;;;24.40;90.60;;;;;;4990600;28;20436;-71
2021/06/08 11:05:57;;;;;;;9.47;8.67;;;24.20;90.30;;;;;;5018008;28;20582;-71
2021/06/08 11:08:58;;;;;;;9.30;8.50;;;24.00;87.40;;;;;;5002133;28;20464;-71
2021/06/08 11:11:42;;;;;;;7.97;7.30;;;23.90;88.10;;;;;;5009558;28;20485;-71
2021/06/08 11:14:41;;;;;;;8.00;7.40;;;23.90;83.90;;;;;;5020604;28;20460;-71
2021/06/08 11:17:29;;;;;;;8.70;7.90;;;24.00;85.80;;;;;;5007606;28;20848;-71
2021/06/08 11:19:57;;;;;;;10.00;9.00;;;24.10;88.40;;;;;;4994755;28;20840;-71
2021/06/08 11:22:42;;;;;;;10.47;9.20;;;24.10;88.50;;;;;;5003757;28;20451;-71
2021/06/08 11:25:32;;;;;;;11.47;8.93;;;24.10;88.20;;;;;;5007814;28;20426;-71
2021/06/08 11:28:09;;;;;;;11.43;9.70;;;24.00;90.70;;;;;;5004158;28;20921;-71
2021/06/08 11:30:38;;;;;;;11.73;10.63;;;23.80;90.60;;;;;;5010107;28;20460;-71
2021/06/08 11:33:08;;;;;;;12.50;11.27;;;23.70;91.10;;;;;;5006301;28;20518;-71
2021/06/08 11:35:42;;;;;;;12.37;11.37;;;23.60;91.40;;;;;;5003833;28;20428;-71
2021/06/08 11:38:25;;;;;;;17.30;14.17;;;23.50;91.80;;;;;;5007333;28;20841;-71
2021/06/08 11:40:57;;;;;;;14.97;13.50;;;23.40;92.60;;;;;;4997638;28;20472;-71
2021/06/08 11:43:22;;;;;;;13.13;12.00;;;23.30;92.20;;;;;;5011197;28;20440;-71
2021/06/08 11:46:05;;;;;;;14.03;12.53;;;23.20;92.50;;;;;;5003541;28;20447;-71
2021/06/08 11:48:35;;;;;;;12.47;11.47;;;23.20;93.10;;;;;;5007575;28;20185;-71
2021/06/08 11:51:03;;;;;;;13.70;12.30;;;23.20;92.90;;;;;;4999138;28;20448;-71
2021/06/08 11:53:28;;;;;;;12.43;11.30;;;23.20;92.40;;;;;;5001925;28;20874;-71
2021/06/08 11:56:04;;;;;;;11.77;10.80;;;23.20;93.20;;;;;;5003442;28;20452;-70
2021/06/08 11:58:37;;;;;;;12.50;11.43;;;23.20;92.70;;;;;;5006213;28;20243;-71
2021/06/08 12:01:04;;;;;;;11.87;10.83;;;23.30;92.70;;;;;;5005058;28;20436;-71
2021/06/08 12:03:38;;;;;;;10.80;9.80;;;23.30;93.00;;;;;;5001895;28;20502;-71
2021/06/08 12:06:05;;;;;;;12.80;11.70;;;23.30;93.20;;;;;;5000650;28;20439;-71
2021/06/08 12:08:33;;;;;;;10.27;9.37;;;23.30;93.50;;;;;;4995627;28;20463;-71
2021/06/08 12:11:11;;;;;;;10.93;10.10;;;23.30;91.90;;;;;;4998063;28;20494;-71
2021/06/08 12:13:37;;;;;;;11.20;10.20;;;23.30;91.30;;;;;;4998066;28;20538;-71
2021/06/08 12:16:03;;;;;;;9.83;8.87;;;23.20;91.00;;;;;;4995424;28;20982;-71
2021/06/08 12:18:38;;;;;;;7.80;7.00;;;23.20;91.40;;;;;;4993069;28;20351;-71
2021/06/08 12:21:15;;;;;;;7.00;6.40;;;23.40;94.20;;;;;;4996284;28;20183;-71
2021/06/08 12:23:41;;;;;;;8.30;7.40;;;23.60;95.40;;;;;;5000430;28;20428;-71
2021/06/08 12:26:10;;;;;;;7.40;6.73;;;23.90;95.50;;;;;;4995781;28;20444;-71
2021/06/08 12:28:37;;;;;;;9.23;8.43;;;24.10;96.20;;;;;;4997468;28;20756;-71
2021/06/08 12:31:14;;;;;;;10.20;9.07;;;24.20;92.10;;;;;;5003062;28;20956;-71
2021/06/08 12:33:40;;;;;;;9.83;9.03;;;24.30;90.00;;;;;;5000829;28;20908;-71
2021/06/08 12:36:07;;;;;;;8.17;7.40;;;24.40;91.60;;;;;;5002956;28;20440;-71
2021/06/08 12:38:33;;;;;;;11.73;10.57;;;24.40;92.40;;;;;;5001803;28;20515;-71